Terminal Aerodrome Forecast
Issued by NWS Greer, SC

Home | Current Version | Previous Version | Text Only | Print | Product List | Glossary On
Versions: 1 2 3 4 5 6 7 8 9 10 11 12 13 14
000
FTUS42 KGSP 201100
TAFAVL
TAF
KAVL 201133Z 2012/2112 36005KT P6SM FEW080 BKN250
     FM201400 01010KT P6SM SCT250
      TEMPO 2018/2022 16009KT
     FM210100 35005KT P6SM FEW250=

USA.gov is the U.S. government's official web portal to all federal, state and local government web resources and services.